Time;durP1;ratioP1;P1;durP2;ratioP2;P2;SDS_P1;SDS_P2;PMS_P1;PMS_P2;Temp;Humidity;BMP_temperature;BMP_pressure;BME280_temperature;BME280_humidity;BME280_pressure;Samples;Min_cycle;Max_cycle;Signal;HPM_P1;HPM_P2
2023/07/20 00:02:13;;;;;;;10.48;4.90;;;;;;;17.18;85.04;101326.25;5061570;28;20036;-51
2023/07/20 00:04:39;;;;;;;7.00;4.53;;;;;;;17.10;85.34;101329.69;5066976;28;20025;-51
2023/07/20 00:07:05;;;;;;;7.90;4.97;;;;;;;17.11;85.51;101331.38;5060440;28;20021;-51
2023/07/20 00:09:30;;;;;;;9.90;4.70;;;;;;;17.08;85.20;101328.97;5058044;28;20060;-50
2023/07/20 00:11:55;;;;;;;9.20;4.68;;;;;;;17.04;85.91;101322.25;5062598;28;20032;-51
2023/07/20 00:14:21;;;;;;;8.45;4.80;;;;;;;17.01;85.52;101327.91;5062057;28;20404;-53
2023/07/20 00:16:46;;;;;;;10.40;5.05;;;;;;;16.95;86.40;101325.78;5057937;28;20070;-51
2023/07/20 00:19:13;;;;;;;8.85;4.88;;;;;;;16.94;86.19;101324.97;5062477;28;20023;-51
2023/07/20 00:21:40;;;;;;;10.00;5.18;;;;;;;16.90;86.29;101331.59;5060606;28;20028;-51
2023/07/20 00:24:06;;;;;;;11.05;5.70;;;;;;;16.86;86.99;101338.25;5056648;28;20032;-54
2023/07/20 00:26:31;;;;;;;10.02;5.22;;;;;;;16.88;87.02;101343.47;5062225;28;20024;-50
2023/07/20 00:28:57;;;;;;;9.20;5.20;;;;;;;16.88;86.92;101333.59;5059017;28;20148;-51
2023/07/20 00:31:22;;;;;;;8.10;5.53;;;;;;;16.87;87.54;101337.28;5060785;28;20433;-51
2023/07/20 00:33:48;;;;;;;9.93;5.45;;;;;;;16.87;87.00;101342.66;5060095;28;20032;-51
2023/07/20 00:36:14;;;;;;;9.57;5.53;;;;;;;16.87;87.18;101333.72;5060018;28;20108;-51
2023/07/20 00:38:40;;;;;;;11.75;5.47;;;;;;;16.88;87.00;101330.91;5061320;28;20146;-51
2023/07/20 00:41:06;;;;;;;6.30;5.03;;;;;;;16.87;87.22;101329.22;5059371;28;20060;-51
2023/07/20 00:43:31;;;;;;;11.73;6.13;;;;;;;16.79;87.82;101334.44;5055874;28;20082;-53
2023/07/20 00:45:56;;;;;;;10.00;5.28;;;;;;;16.79;87.33;101334.44;5057699;28;20400;-53
2023/07/20 00:48:22;;;;;;;11.18;5.95;;;;;;;16.76;87.24;101330.22;5058420;28;20025;-52
2023/07/20 00:50:48;;;;;;;10.43;5.55;;;;;;;16.68;87.18;101329.25;5059383;28;20051;-52
2023/07/20 00:53:14;;;;;;;12.65;6.13;;;;;;;16.65;87.27;101333.94;5059121;28;20036;-51
2023/07/20 00:55:39;;;;;;;10.10;5.60;;;;;;;16.66;87.55;101332.09;5061467;28;20033;-51
2023/07/20 00:58:05;;;;;;;9.45;5.80;;;;;;;16.61;87.51;101332.50;5058074;28;20091;-52
2023/07/20 01:00:30;;;;;;;14.70;5.88;;;;;;;16.61;87.44;101334.34;5061531;28;20017;-53
2023/07/20 01:02:55;;;;;;;11.40;5.28;;;;;;;16.57;87.65;101328.44;5057447;28;20047;-51
2023/07/20 01:05:22;;;;;;;9.57;5.70;;;;;;;16.55;87.59;101332.25;5059710;28;20089;-51
2023/07/20 01:08:06;;;;;;;9.65;5.75;;;;;;;16.53;87.48;101335.06;5058761;28;20029;-52
2023/07/20 01:10:54;;;;;;;11.32;6.00;;;;;;;16.44;88.29;101333.28;5061003;28;20483;-51
2023/07/20 01:13:20;;;;;;;10.45;5.60;;;;;;;16.42;88.22;101338.78;5059081;28;20036;-51
2023/07/20 01:16:12;;;;;;;14.45;5.72;;;;;;;16.48;87.42;101336.50;5066024;28;20036;-52
2023/07/20 01:18:38;;;;;;;9.80;5.95;;;;;;;16.37;88.92;101338.34;5064585;28;20247;-51
2023/07/20 01:21:08;;;;;;;11.07;5.65;;;;;;;16.37;88.65;101343.72;5059547;28;20124;-51
2023/07/20 01:23:51;;;;;;;11.70;5.63;;;;;;;16.33;88.27;101342.28;5064903;28;20105;-52
2023/07/20 01:26:23;;;;;;;15.00;6.30;;;;;;;16.22;88.98;101340.63;5057183;28;20038;-52
2023/07/20 01:28:55;;;;;;;14.43;7.28;;;;;;;16.17;89.57;101340.22;5054527;28;20021;-51
2023/07/20 01:31:27;;;;;;;14.82;6.38;;;;;;;16.15;90.14;101347.53;5061308;28;20040;-51
2023/07/20 01:33:56;;;;;;;12.02;6.18;;;;;;;16.22;89.95;101350.47;5059259;28;20029;-51
2023/07/20 01:36:24;;;;;;;9.75;6.82;;;;;;;16.24;89.93;101348.53;5057486;28;20020;-51
2023/07/20 01:38:51;;;;;;;13.20;6.65;;;;;;;16.22;90.11;101345.13;5060892;28;20499;-51
2023/07/20 01:41:17;;;;;;;13.20;6.55;;;;;;;16.24;90.60;101345.84;5059152;28;20096;-52
2023/07/20 01:43:43;;;;;;;11.15;6.68;;;;;;;16.22;90.52;101339.75;5063005;28;20029;-52
2023/07/20 01:46:08;;;;;;;13.40;7.15;;;;;;;16.25;90.88;101353.75;5058139;28;20031;-50
2023/07/20 01:48:34;;;;;;;13.27;6.30;;;;;;;16.28;90.55;101349.94;5062361;28;20355;-51
2023/07/20 01:50:59;;;;;;;13.82;6.70;;;;;;;16.24;90.96;101340.50;5057471;28;20029;-52
2023/07/20 01:53:24;;;;;;;12.93;7.03;;;;;;;16.24;92.17;101346.69;5054380;28;20025;-50
2023/07/20 01:55:52;;;;;;;11.45;6.43;;;;;;;16.22;92.19;101348.66;5059464;28;20444;-51
2023/07/20 01:58:18;;;;;;;12.90;6.43;;;;;;;16.27;92.14;101350.94;5057664;28;20059;-51
2023/07/20 02:00:43;;;;;;;10.88;6.28;;;;;;;16.28;92.09;101344.56;5057171;28;20525;-51
2023/07/20 02:03:09;;;;;;;14.32;7.20;;;;;;;16.27;92.57;101354.44;5058060;28;20469;-51
2023/07/20 02:05:34;;;;;;;13.27;6.95;;;;;;;16.31;92.16;101354.16;5059291;28;20390;-51
2023/07/20 02:07:59;;;;;;;12.05;7.22;;;;;;;16.33;92.82;101354.88;5059297;28;20397;-50
2023/07/20 02:10:24;;;;;;;14.68;7.05;;;;;;;16.35;93.23;101359.06;5057582;28;20040;-52
2023/07/20 02:12:50;;;;;;;14.98;7.25;;;;;;;16.38;93.35;101357.97;5057776;28;20025;-51
2023/07/20 02:15:16;;;;;;;13.68;8.35;;;;;;;16.38;93.35;101366.84;5063830;28;20112;-51
2023/07/20 02:17:42;;;;;;;15.63;8.88;;;;;;;16.40;93.66;101364.03;5055378;28;20032;-51
2023/07/20 02:20:09;;;;;;;12.63;7.40;;;;;;;16.42;93.68;101365.59;5060463;28;20051;-51
2023/07/20 02:22:39;;;;;;;12.55;8.35;;;;;;;16.43;93.63;101369.09;5056288;28;20033;-52
2023/07/20 02:25:06;;;;;;;12.70;8.45;;;;;;;16.42;94.07;101367.41;5059141;28;20484;-54
2023/07/20 02:27:33;;;;;;;13.15;8.35;;;;;;;16.46;94.04;101368.81;5058904;28;20050;-53
2023/07/20 02:29:58;;;;;;;16.38;9.07;;;;;;;16.43;94.69;101371.78;5060978;28;20044;-52
2023/07/20 02:32:23;;;;;;;17.58;8.27;;;;;;;16.43;94.81;101369.09;5059716;28;20112;-51
2023/07/20 02:34:48;;;;;;;14.17;9.50;;;;;;;16.46;94.87;101371.50;5056737;28;20058;-51
2023/07/20 02:37:14;;;;;;;15.10;8.95;;;;;;;16.50;94.34;101377.41;5060700;28;20791;-53
2023/07/20 02:39:40;;;;;;;18.30;9.40;;;;;;;16.45;95.16;101378.72;5058369;28;20055;-52
2023/07/20 02:42:05;;;;;;;12.70;8.95;;;;;;;16.51;95.14;101379.97;5057699;28;20094;-51
2023/07/20 02:44:31;;;;;;;16.77;10.45;;;;;;;16.51;95.03;101381.81;5051472;28;20025;-54
2023/07/20 02:46:56;;;;;;;13.43;10.07;;;;;;;16.50;94.62;101375.56;5056027;28;20013;-51
2023/07/20 02:49:22;;;;;;;13.18;10.82;;;;;;;16.50;95.44;101380.94;5054077;28;20436;-52
2023/07/20 02:51:47;;;;;;;14.02;10.73;;;;;;;16.50;95.47;101380.94;5059263;28;20564;-50
2023/07/20 02:54:12;;;;;;;15.82;10.25;;;;;;;16.51;95.88;101384.47;5061766;28;20367;-51
2023/07/20 02:56:37;;;;;;;13.68;10.75;;;;;;;16.49;95.74;101383.75;5062693;28;20067;-54
2023/07/20 02:59:03;;;;;;;13.63;11.13;;;;;;;16.49;95.82;101392.66;5064639;28;20028;-51
2023/07/20 03:01:29;;;;;;;17.85;11.57;;;;;;;16.51;96.23;101400.56;5063364;28;20497;-51
2023/07/20 03:03:55;;;;;;;16.98;11.82;;;;;;;16.51;96.38;101395.22;5066629;28;20021;-53
2023/07/20 03:06:21;;;;;;;19.25;12.13;;;;;;;16.51;96.01;101398.72;5060170;28;20029;-51
2023/07/20 03:08:53;;;;;;;17.13;12.70;;;;;;;16.49;96.01;101402.53;5062392;28;20532;-51
2023/07/20 03:11:20;;;;;;;19.58;12.77;;;;;;;16.47;96.30;101402.69;5064103;28;20032;-51
2023/07/20 03:13:47;;;;;;;18.02;13.52;;;;;;;16.48;96.29;101403.53;5063430;28;20051;-50
2023/07/20 03:16:15;;;;;;;16.48;12.30;;;;;;;16.53;96.17;101409.31;5064244;28;20525;-51
2023/07/20 03:18:41;;;;;;;14.27;11.60;;;;;;;16.50;96.05;101409.59;5061704;28;20020;-51
2023/07/20 03:21:07;;;;;;;13.85;12.13;;;;;;;16.46;96.39;101409.88;5060755;28;20045;-50
2023/07/20 03:23:33;;;;;;;14.40;12.80;;;;;;;16.48;96.38;101411.56;5064007;28;20028;-51
2023/07/20 03:25:58;;;;;;;15.30;11.90;;;;;;;16.50;96.23;101410.44;5065838;28;20047;-51
2023/07/20 03:28:24;;;;;;;14.07;12.15;;;;;;;16.46;95.60;101409.88;5063655;28;20039;-51
2023/07/20 03:30:54;;;;;;;16.25;11.90;;;;;;;16.45;95.82;101404.66;5059518;28;20508;-53
2023/07/20 03:33:19;;;;;;;16.05;12.73;;;;;;;16.40;95.74;101407.78;5059438;28;20045;-51
2023/07/20 03:35:45;;;;;;;13.98;12.40;;;;;;;16.35;95.90;101415.38;5057565;28;20036;-53
2023/07/20 03:38:10;;;;;;;13.88;12.35;;;;;;;16.38;95.58;101420.47;5063570;28;20588;-51
2023/07/20 03:40:35;;;;;;;14.98;12.23;;;;;;;16.33;95.65;101419.19;5058383;28;20063;-53
2023/07/20 03:43:00;;;;;;;17.25;12.65;;;;;;;16.34;95.78;101421.75;5056356;28;20173;-52
2023/07/20 03:45:26;;;;;;;15.52;11.95;;;;;;;16.32;95.80;101428.22;5062561;28;20025;-52
2023/07/20 03:47:51;;;;;;;14.13;12.18;;;;;;;16.23;96.32;101422.72;5065356;28;20418;-52
2023/07/20 03:50:16;;;;;;;12.98;11.18;;;;;;;16.25;96.02;101426.13;5060507;28;20025;-54
2023/07/20 03:52:42;;;;;;;13.73;11.88;;;;;;;16.27;95.73;101428.66;5060107;28;20029;-52
2023/07/20 03:55:07;;;;;;;13.00;11.48;;;;;;;16.21;95.87;101429.22;5055488;28;20086;-54
2023/07/20 03:57:33;;;;;;;11.88;10.60;;;;;;;16.20;95.63;101431.03;5066368;28;20171;-53
2023/07/20 03:59:59;;;;;;;13.50;10.95;;;;;;;16.18;95.21;101434.84;5060395;28;20037;-51
2023/07/20 04:02:25;;;;;;;13.15;10.60;;;;;;;16.22;95.07;101434.44;5062625;28;20481;-53
2023/07/20 04:04:50;;;;;;;11.13;9.32;;;;;;;16.20;95.52;101430.19;5056402;28;20021;-50
2023/07/20 04:07:16;;;;;;;12.07;9.95;;;;;;;16.18;94.57;101437.53;5059531;28;20021;-53
2023/07/20 04:09:41;;;;;;;11.20;9.95;;;;;;;16.14;94.94;101436.09;5060642;28;20062;-51
2023/07/20 04:12:07;;;;;;;13.35;9.90;;;;;;;16.17;94.95;101433.16;5059365;28;20056;-51
2023/07/20 04:14:32;;;;;;;10.45;9.13;;;;;;;16.18;94.93;101440.22;5060705;28;20021;-51
2023/07/20 04:17:00;;;;;;;10.02;8.82;;;;;;;16.21;94.74;101434.56;5060972;28;20039;-51
2023/07/20 04:19:25;;;;;;;10.57;9.18;;;;;;;16.19;94.78;101440.06;5059648;28;20462;-50
2023/07/20 04:21:51;;;;;;;10.55;9.45;;;;;;;16.18;94.79;101438.38;5059976;28;20155;-52
2023/07/20 04:24:16;;;;;;;12.45;9.38;;;;;;;16.15;95.08;101438.66;5063293;28;20020;-51
2023/07/20 04:26:41;;;;;;;10.05;8.23;;;;;;;16.16;94.79;101439.50;5059961;28;20714;-54
2023/07/20 04:29:07;;;;;;;9.15;8.07;;;;;;;16.15;94.52;101435.97;5057896;28;20521;-51
2023/07/20 04:31:33;;;;;;;10.07;8.50;;;;;;;16.08;94.95;101438.34;5061630;28;20136;-51
2023/07/20 04:33:58;;;;;;;9.32;8.30;;;;;;;16.15;94.27;101438.66;5058672;28;20405;-51
2023/07/20 04:36:23;;;;;;;8.65;7.72;;;;;;;16.14;94.07;101438.78;5062551;28;20474;-51
2023/07/20 04:38:49;;;;;;;9.60;8.70;;;;;;;16.14;94.15;101444.13;5057349;28;20043;-50
2023/07/20 04:41:14;;;;;;;12.98;9.48;;;;;;;16.10;94.15;101440.91;5060626;28;20377;-51
2023/07/20 04:43:44;;;;;;;10.35;8.98;;;;;;;16.12;94.16;101443.44;5062538;28;20369;-51
2023/07/20 04:46:10;;;;;;;12.73;9.98;;;;;;;16.10;94.56;101443.56;5064999;28;20037;-50
2023/07/20 04:48:36;;;;;;;11.07;9.90;;;;;;;16.12;94.47;101444.31;5059554;28;20525;-52
2023/07/20 04:51:02;;;;;;;10.90;9.57;;;;;;;16.13;94.51;101445.97;5060194;28;20159;-51
2023/07/20 04:53:27;;;;;;;10.90;9.90;;;;;;;16.14;94.72;101452.19;5057278;28;20528;-50
2023/07/20 04:55:54;;;;;;;13.95;10.98;;;;;;;16.14;94.80;101449.50;5059859;28;20033;-50
2023/07/20 04:58:20;;;;;;;13.63;10.70;;;;;;;16.13;95.09;101434.44;5058884;28;20055;-53
2023/07/20 05:00:46;;;;;;;12.85;11.40;;;;;;;16.20;95.13;101438.22;5057484;28;20021;-51
2023/07/20 05:03:11;;;;;;;14.80;10.75;;;;;;;16.24;95.07;101428.94;5058233;28;20035;-53
2023/07/20 05:05:36;;;;;;;13.13;11.80;;;;;;;16.24;95.05;101432.47;5059034;28;20157;-51
2023/07/20 05:08:04;;;;;;;15.65;12.30;;;;;;;16.27;95.27;101429.50;5056555;28;20036;-52
2023/07/20 05:10:29;;;;;;;13.07;11.60;;;;;;;16.34;94.63;101429.78;5061151;28;20029;-52
2023/07/20 05:12:54;;;;;;;13.32;11.88;;;;;;;16.38;94.50;101435.72;5058141;28;20091;-54
2023/07/20 05:15:20;;;;;;;12.55;11.25;;;;;;;16.42;94.25;101439.78;5060953;28;20037;-52
2023/07/20 05:17:46;;;;;;;13.35;12.00;;;;;;;16.42;93.79;101439.78;5056956;28;20044;-54
2023/07/20 05:20:14;;;;;;;13.77;11.23;;;;;;;16.41;94.17;101438.09;5062087;28;20029;-50
2023/07/20 05:22:40;;;;;;;13.48;11.40;;;;;;;16.42;93.99;101447.81;5057364;28;20048;-51
2023/07/20 05:25:10;;;;;;;13.10;11.45;;;;;;;16.37;94.03;101448.28;5056363;28;20500;-52
2023/07/20 05:27:39;;;;;;;15.75;12.45;;;;;;;16.41;94.23;101446.16;5059382;28;20071;-51
2023/07/20 05:30:07;;;;;;;15.55;12.27;;;;;;;16.48;93.73;101449.13;5066080;28;20031;-53
2023/07/20 05:32:32;;;;;;;14.18;12.55;;;;;;;16.48;94.42;101451.78;5057839;28;20075;-52
2023/07/20 05:34:58;;;;;;;15.38;11.82;;;;;;;16.54;94.00;101460.13;5062198;28;20037;-53
2023/07/20 05:37:23;;;;;;;12.82;10.75;;;;;;;16.69;93.32;101457.03;5056841;28;20020;-51
2023/07/20 05:39:49;;;;;;;11.75;10.55;;;;;;;16.78;93.06;101456.97;5056907;28;20073;-51
2023/07/20 05:42:14;;;;;;;11.50;9.27;;;;;;;16.97;91.71;101456.16;5062264;28;20024;-50
2023/07/20 05:44:41;;;;;;;10.50;8.80;;;;;;;17.08;91.22;101459.66;5057813;28;20054;-51
2023/07/20 05:47:06;;;;;;;9.43;8.45;;;;;;;17.25;90.49;101466.09;5056663;28;20444;-51
2023/07/20 05:49:31;;;;;;;9.73;8.73;;;;;;;17.36;89.38;101458.72;5059511;28;20024;-51
2023/07/20 05:51:57;;;;;;;10.20;8.10;;;;;;;17.55;88.61;101462.31;5055862;28;20033;-50
2023/07/20 05:54:24;;;;;;;10.48;8.30;;;;;;;17.59;88.77;101457.50;5057355;28;20359;-51
2023/07/20 05:56:49;;;;;;;8.43;7.25;;;;;;;17.77;86.97;101474.53;5058075;28;20033;-51
2023/07/20 05:59:15;;;;;;;11.80;7.50;;;;;;;17.90;86.13;101467.00;5057593;28;20017;-52
2023/07/20 06:01:40;;;;;;;7.68;6.53;;;;;;;18.09;84.95;101479.44;5058743;28;20382;-52
2023/07/20 06:04:05;;;;;;;6.80;6.13;;;;;;;18.25;84.23;101476.09;5059821;28;20047;-55
2023/07/20 06:06:31;;;;;;;9.60;6.13;;;;;;;18.36;83.30;101475.03;5057108;28;20025;-52
2023/07/20 06:08:56;;;;;;;6.50;5.57;;;;;;;18.58;82.65;101471.00;5058478;28;20394;-52
2023/07/20 06:11:21;;;;;;;6.05;5.38;;;;;;;18.72;82.03;101472.31;5048087;28;20047;-52
2023/07/20 06:13:46;;;;;;;5.30;4.57;;;;;;;18.99;80.41;101466.00;5054364;28;20020;-51
2023/07/20 06:16:12;;;;;;;7.15;4.68;;;;;;;19.09;80.43;101468.59;5051064;28;20430;-52
2023/07/20 06:18:37;;;;;;;5.13;4.57;;;;;;;19.17;78.77;101479.41;5060246;28;20481;-52
2023/07/20 06:21:03;;;;;;;5.38;4.95;;;;;;;19.28;79.03;101474.75;5054680;28;20032;-52
2023/07/20 06:23:28;;;;;;;5.60;4.83;;;;;;;19.28;77.98;101480.13;5063186;28;20029;-54
2023/07/20 06:25:53;;;;;;;5.45;4.85;;;;;;;19.47;76.84;101488.00;5057832;28;20373;-52
2023/07/20 06:28:19;;;;;;;8.00;4.10;;;;;;;19.41;76.21;101484.06;5058000;28;20108;-54
2023/07/20 06:30:44;;;;;;;6.18;4.57;;;;;;;19.42;75.40;101488.47;5060589;28;20028;-55
2023/07/20 06:33:09;;;;;;;6.18;4.40;;;;;;;19.46;76.02;101482.78;5059443;28;20369;-52
2023/07/20 06:35:35;;;;;;;5.57;4.60;;;;;;;19.66;75.50;101486.91;5055407;28;20037;-55
2023/07/20 06:38:03;;;;;;;5.18;4.68;;;;;;;19.72;75.51;101474.66;5061226;28;20496;-53
2023/07/20 06:40:30;;;;;;;5.63;4.68;;;;;;;19.77;75.11;101481.25;5061861;28;20159;-52
2023/07/20 06:42:55;;;;;;;6.15;5.00;;;;;;;19.78;73.99;101476.69;5061789;28;20052;-54
2023/07/20 06:45:21;;;;;;;5.03;4.55;;;;;;;19.71;73.42;101484.56;5058495;28;20059;-52
2023/07/20 06:47:46;;;;;;;5.15;4.68;;;;;;;19.77;73.13;101481.25;5058889;28;20041;-53
2023/07/20 06:50:12;;;;;;;5.30;4.75;;;;;;;19.87;73.77;101474.91;5060952;28;20059;-51
2023/07/20 06:52:37;;;;;;;6.20;5.50;;;;;;;20.05;71.21;101482.84;5061065;28;20024;-51
2023/07/20 06:55:03;;;;;;;6.63;5.85;;;;;;;20.21;70.42;101479.38;5059295;28;20055;-51
2023/07/20 06:57:29;;;;;;;7.18;6.18;;;;;;;20.18;70.46;101482.38;5070526;28;20093;-52
2023/07/20 06:59:54;;;;;;;6.80;6.10;;;;;;;20.12;70.14;101486.59;5061232;28;20029;-51
2023/07/20 07:02:19;;;;;;;7.03;5.70;;;;;;;20.15;70.06;101494.34;5063834;28;20025;-54
2023/07/20 07:04:46;;;;;;;7.38;5.90;;;;;;;20.09;70.46;101497.72;5057659;28;20025;-50
2023/07/20 07:07:14;;;;;;;6.88;5.80;;;;;;;20.02;69.70;101492.13;5062490;28;20032;-51
2023/07/20 07:09:39;;;;;;;7.13;5.72;;;;;;;19.99;69.68;101494.31;5056367;28;20386;-51
2023/07/20 07:12:05;;;;;;;5.32;4.63;;;;;;;19.89;69.42;101497.16;5061162;28;20024;-51
2023/07/20 07:14:30;;;;;;;4.95;3.28;;;;;;;19.81;68.77;101494.41;5063732;28;20033;-51
2023/07/20 07:16:55;;;;;;;3.65;2.90;;;;;;;19.95;69.76;101499.16;5060557;28;20025;-51
2023/07/20 07:19:21;;;;;;;4.68;2.40;;;;;;;20.18;68.24;101499.41;5063735;28;20048;-51
2023/07/20 07:21:46;;;;;;;3.47;3.10;;;;;;;20.34;69.05;101499.44;5062610;28;20064;-51
2023/07/20 07:24:11;;;;;;;5.45;3.20;;;;;;;20.31;68.23;101493.53;5062159;28;20025;-51
2023/07/20 07:26:37;;;;;;;5.07;3.75;;;;;;;20.48;67.69;101499.81;5063624;28;20037;-50
2023/07/20 07:29:03;;;;;;;4.15;3.70;;;;;;;20.90;67.18;101498.84;5059017;28;20397;-51
2023/07/20 07:31:30;;;;;;;5.63;3.45;;;;;;;21.29;66.43;101495.41;5062790;28;20127;-51
2023/07/20 07:33:55;;;;;;;3.47;2.22;;;;;;;21.67;62.93;101503.78;5059896;28;20470;-51
2023/07/20 07:36:21;;;;;;;2.10;1.90;;;;;;;21.83;62.62;101500.16;5064819;28;20073;-53
2023/07/20 07:38:46;;;;;;;2.92;2.65;;;;;;;21.74;61.51;101506.63;5059949;28;20946;-51
2023/07/20 07:41:11;;;;;;;3.05;2.35;;;;;;;21.83;60.75;101505.56;5059425;28;20052;-51
2023/07/20 07:43:38;;;;;;;6.05;2.30;;;;;;;22.13;59.69;101512.03;5063133;28;20027;-51
2023/07/20 07:46:03;;;;;;;2.38;2.10;;;;;;;22.48;58.90;101500.81;5059651;28;20473;-51
2023/07/20 07:48:29;;;;;;;1.85;1.63;;;;;;;22.83;57.78;101506.66;5062570;28;20017;-52
2023/07/20 07:50:54;;;;;;;2.70;1.90;;;;;;;23.04;56.58;101512.22;5063087;28;20029;-51
2023/07/20 07:53:20;;;;;;;1.70;1.60;;;;;;;23.29;54.18;101509.31;5060277;28;20017;-51
2023/07/20 07:55:47;;;;;;;2.20;1.55;;;;;;;23.40;53.90;101503.44;5058844;28;20025;-52
2023/07/20 07:58:13;;;;;;;2.80;1.85;;;;;;;23.71;53.24;101507.78;5065263;28;20029;-52
2023/07/20 08:00:39;;;;;;;1.83;1.08;;;;;;;24.11;51.10;101510.19;5063199;28;20032;-53
2023/07/20 08:03:06;;;;;;;2.83;1.50;;;;;;;24.20;51.63;101504.47;5064069;28;20042;-54
2023/07/20 08:05:34;;;;;;;3.33;1.63;;;;;;;24.52;50.80;101515.03;5062655;28;20033;-55
2023/07/20 08:08:00;;;;;;;2.33;1.20;;;;;;;24.82;49.50;101514.94;5060530;28;20036;-51
2023/07/20 08:10:25;;;;;;;1.10;1.00;;;;;;;25.11;48.35;101509.31;5059685;28;20404;-53
2023/07/20 08:12:51;;;;;;;1.73;1.20;;;;;;;25.32;47.33;101514.94;5059258;28;20136;-55
2023/07/20 08:15:16;;;;;;;1.30;1.00;;;;;;;25.75;46.66;101512.88;5060475;28;20033;-54
2023/07/20 08:17:44;;;;;;;1.08;1.00;;;;;;;25.66;45.67;101509.47;5032189;28;20025;-52
2023/07/20 08:20:13;;;;;;;0.80;0.80;;;;;;;25.88;45.20;101511.22;5058133;28;20036;-52
2023/07/20 08:22:39;;;;;;;1.40;0.90;;;;;;;26.30;45.74;101514.78;5058003;28;20031;-52
2023/07/20 08:25:05;;;;;;;1.33;0.70;;;;;;;26.33;44.92;101515.19;5055754;28;20029;-55
2023/07/20 08:27:31;;;;;;;2.25;0.98;;;;;;;26.55;42.97;101515.84;5061650;28;20079;-54
2023/07/20 08:29:56;;;;;;;2.05;1.10;;;;;;;26.72;43.82;101516.31;5059787;28;20029;-52
2023/07/20 08:32:22;;;;;;;0.95;0.80;;;;;;;26.82;42.27;101512.34;5058284;28;20433;-52
2023/07/20 08:34:47;;;;;;;1.25;1.00;;;;;;;26.88;43.05;101508.78;5057952;28;20024;-52
2023/07/20 08:37:12;;;;;;;1.20;0.88;;;;;;;26.68;42.28;101509.63;5063539;28;20203;-54
2023/07/20 08:39:38;;;;;;;1.80;0.57;;;;;;;26.65;42.04;101509.22;5059228;28;20474;-52
2023/07/20 08:42:06;;;;;;;1.40;0.80;;;;;;;26.64;40.58;101500.16;5063496;28;20311;-54
2023/07/20 08:44:33;;;;;;;0.68;0.65;;;;;;;26.51;40.81;101500.13;5057148;28;20036;-54
2023/07/20 08:47:02;;;;;;;1.42;0.70;;;;;;;26.59;41.21;101495.31;5058309;28;20544;-55
2023/07/20 08:49:27;;;;;;;;;;;;;;;27.05;45.65;101504.59;5060114;28;20025;-52
2023/07/20 08:51:53;;;;;;;1.58;0.73;;;;;;;26.94;40.91;101495.13;5063058;28;20069;-52
2023/07/20 08:54:18;;;;;;;2.13;1.02;;;;;;;27.24;40.92;101493.84;5057949;28;20090;-52
2023/07/20 08:56:45;;;;;;;1.33;0.93;;;;;;;27.34;40.84;101502.47;5058254;28;20086;-53
2023/07/20 08:59:16;;;;;;;1.80;0.85;;;;;;;27.40;39.63;101496.16;5063320;28;20028;-52
2023/07/20 09:01:42;;;;;;;2.72;0.70;;;;;;;27.80;38.23;101492.47;5061744;28;20028;-53
2023/07/20 09:04:07;;;;;;;4.47;0.77;;;;;;;28.18;38.29;101484.31;5057395;28;20030;-53
2023/07/20 09:06:34;;;;;;;1.80;0.88;;;;;;;28.48;36.76;101486.44;5061936;28;20081;-55
2023/07/20 09:09:00;;;;;;;2.33;0.60;;;;;;;28.55;37.29;101489.94;5065318;28;20123;-54
2023/07/20 09:11:25;;;;;;;1.25;0.80;;;;;;;28.53;36.59;101486.59;5055736;28;20534;-54
2023/07/20 09:14:07;;;;;;;0.70;0.70;;;;;;;28.84;39.70;101498.56;5056464;28;20389;-55
2023/07/20 09:16:50;;;;;;;1.75;0.80;;;;;;;28.54;38.44;101488.25;5058264;28;20064;-53
2023/07/20 09:19:19;;;;;;;0.90;0.60;;;;;;;28.50;35.31;101486.22;5055889;28;20035;-53
2023/07/20 09:21:48;;;;;;;1.02;0.50;;;;;;;28.50;37.29;101486.22;5058010;28;20159;-51
2023/07/20 09:24:15;;;;;;;1.80;0.50;;;;;;;28.33;36.07;101483.16;5056619;28;20071;-52
2023/07/20 09:26:43;;;;;;;0.95;0.60;;;;;;;28.17;35.39;101479.06;5048918;28;20124;-54
2023/07/20 09:29:11;;;;;;;0.50;0.50;;;;;;;28.43;34.28;101487.09;5060607;28;20036;-52
2023/07/20 09:31:37;;;;;;;0.88;0.40;;;;;;;28.76;34.35;101477.84;5059968;28;20048;-54
2023/07/20 09:34:04;;;;;;;1.27;0.30;;;;;;;28.28;32.92;101472.91;5058146;28;20070;-52
2023/07/20 09:36:33;;;;;;;1.17;0.63;;;;;;;27.91;34.25;101482.75;5060852;28;20433;-53
2023/07/20 09:38:59;;;;;;;0.52;0.50;;;;;;;27.66;36.24;101475.28;5056658;28;20139;-52
2023/07/20 09:41:25;;;;;;;1.77;0.98;;;;;;;27.46;38.42;101470.75;5061960;28;20024;-54
2023/07/20 09:43:51;;;;;;;2.60;0.60;;;;;;;27.52;39.58;101481.88;5060260;28;20025;-52
2023/07/20 09:46:17;;;;;;;2.65;0.73;;;;;;;27.16;38.88;101484.00;5056887;28;20020;-54
2023/07/20 09:48:53;;;;;;;1.15;0.93;;;;;;;27.00;40.23;101488.03;5059458;28;20025;-52
2023/07/20 09:51:20;;;;;;;2.40;1.00;;;;;;;26.94;40.85;101481.50;5058838;28;20021;-51
2023/07/20 09:53:48;;;;;;;1.48;0.90;;;;;;;26.73;41.20;101481.72;5057153;28;20126;-51
2023/07/20 09:56:16;;;;;;;1.90;0.90;;;;;;;26.62;40.62;101474.16;5057598;28;20081;-53
2023/07/20 09:58:42;;;;;;;1.00;0.70;;;;;;;26.68;39.78;101474.19;5057229;28;20453;-51
2023/07/20 10:01:11;;;;;;;1.75;0.68;;;;;;;26.72;38.80;101471.88;5052185;28;20822;-52
2023/07/20 10:03:37;;;;;;;0.55;0.55;;;;;;;27.22;38.31;101468.69;5055638;28;20028;-53
2023/07/20 10:06:07;;;;;;;1.73;0.98;;;;;;;27.08;39.08;101476.03;5057359;28;20028;-51
2023/07/20 10:08:39;;;;;;;2.22;0.90;;;;;;;27.00;38.96;101473.56;5057720;28;20021;-54
2023/07/20 10:11:06;;;;;;;2.00;0.82;;;;;;;26.84;38.96;101469.38;5061415;28;20071;-54
2023/07/20 10:13:35;;;;;;;1.10;0.85;;;;;;;27.04;39.67;101469.34;5058975;28;20048;-53
2023/07/20 10:16:07;;;;;;;1.88;0.50;;;;;;;27.29;38.61;101464.91;5054333;28;20038;-52
2023/07/20 10:18:50;;;;;;;3.33;1.10;;;;;;;27.22;38.37;101465.97;5055814;28;20033;-54
2023/07/20 10:21:19;;;;;;;2.40;0.68;;;;;;;27.18;37.59;101459.25;5047304;28;20036;-53
2023/07/20 10:23:45;;;;;;;1.98;0.80;;;;;;;27.31;38.32;101461.97;5057264;28;20025;-51
2023/07/20 10:26:11;;;;;;;2.95;0.85;;;;;;;27.61;37.79;101466.91;5048116;28;20021;-52
2023/07/20 10:28:38;;;;;;;1.85;0.60;;;;;;;27.71;36.46;101456.38;5052290;28;20048;-53
2023/07/20 10:31:03;;;;;;;0.45;0.43;;;;;;;28.04;35.37;101458.13;5053684;28;20379;-53
2023/07/20 10:33:29;;;;;;;0.40;0.40;;;;;;;28.06;35.24;101450.53;5049664;28;20120;-52
2023/07/20 10:35:56;;;;;;;2.08;0.80;;;;;;;27.92;35.73;101449.75;5054277;28;20532;-52
2023/07/20 10:38:40;;;;;;;1.10;0.40;;;;;;;27.98;36.43;101450.81;5050403;28;20029;-52
2023/07/20 10:41:29;;;;;;;1.08;0.70;;;;;;;27.99;37.11;101441.56;5051214;28;20025;-53
2023/07/20 10:43:58;;;;;;;;;;;;;;;28.55;37.60;101443.47;5056427;28;20040;-52
2023/07/20 10:46:38;;;;;;;2.35;0.80;;;;;;;28.12;36.11;101438.75;5055366;28;20002;-54
2023/07/20 10:49:09;;;;;;;1.17;0.88;;;;;;;28.50;36.13;101437.84;5052386;28;20476;-52
2023/07/20 10:51:48;;;;;;;0.93;0.60;;;;;;;28.23;35.67;101432.59;5055045;28;20055;-52
2023/07/20 10:54:16;;;;;;;0.60;0.50;;;;;;;28.01;34.74;101434.00;5058207;28;20029;-52
2023/07/20 10:56:42;;;;;;;0.63;0.60;;;;;;;27.76;35.17;101433.88;5049553;28;20128;-52
2023/07/20 10:59:21;;;;;;;1.23;0.60;;;;;;;27.73;36.47;101437.06;5054957;28;20514;-53
2023/07/20 11:01:50;;;;;;;0.75;0.57;;;;;;;27.51;36.62;101437.34;5051520;28;20044;-52
2023/07/20 11:04:19;;;;;;;1.83;0.60;;;;;;;27.54;36.97;101438.81;5055095;28;20040;-55
2023/07/20 11:06:55;;;;;;;1.02;0.60;;;;;;;27.43;37.63;101437.59;5054636;28;20142;-54
2023/07/20 11:09:25;;;;;;;0.73;0.63;;;;;;;27.20;36.14;101438.06;5055574;28;20390;-55
2023/07/20 11:12:09;;;;;;;2.10;0.60;;;;;;;27.18;37.94;101432.84;5043788;28;20028;-54
2023/07/20 11:14:40;;;;;;;0.40;0.40;;;;;;;27.11;37.18;101440.16;5057501;28;20436;-55
2023/07/20 11:17:14;;;;;;;1.00;0.50;;;;;;;27.03;37.63;101426.75;5057180;28;20446;-53
2023/07/20 11:19:43;;;;;;;1.13;0.60;;;;;;;27.03;37.53;101421.31;5062178;28;20082;-54
2023/07/20 11:22:09;;;;;;;;;;;;;;;27.53;38.30;101428.94;5061600;28;20033;-54